sensor_id;sensor_type;location;lat;lon;timestamp;pressure;altitude;pressure_sealevel;temperature;humidity
65754;BME280;69207;47.502;18.940;2023-06-22T00:00:21;98334.50;;;20.81;85.70
65754;BME280;69207;47.502;18.940;2023-06-22T00:01:24;98341.06;;;20.90;84.88
65754;BME280;69207;47.502;18.940;2023-06-22T00:02:27;98338.94;;;20.88;85.09
65754;BME280;69207;47.502;18.940;2023-06-22T00:03:31;98342.25;;;20.82;85.96
65754;BME280;69207;47.502;18.940;2023-06-22T00:04:34;98344.91;;;20.78;86.22
65754;BME280;69207;47.502;18.940;2023-06-22T00:05:37;98351.12;;;20.77;87.19
65754;BME280;69207;47.502;18.940;2023-06-22T00:06:40;98357.78;;;20.88;87.97
65754;BME280;69207;47.502;18.940;2023-06-22T00:07:44;98358.53;;;20.90;87.25
65754;BME280;69207;47.502;18.940;2023-06-22T00:08:47;98363.22;;;20.83;87.69
65754;BME280;69207;47.502;18.940;2023-06-22T00:09:50;98361.50;;;20.74;89.49
65754;BME280;69207;47.502;18.940;2023-06-22T00:10:53;98367.47;;;20.65;91.63
65754;BME280;69207;47.502;18.940;2023-06-22T00:11:56;98377.06;;;20.60;91.23
65754;BME280;69207;47.502;18.940;2023-06-22T00:12:59;98379.09;;;20.57;91.77
65754;BME280;69207;47.502;18.940;2023-06-22T00:14:02;98376.81;;;20.51;93.16
65754;BME280;69207;47.502;18.940;2023-06-22T00:15:06;98373.16;;;20.47;93.83
65754;BME280;69207;47.502;18.940;2023-06-22T00:16:09;98369.94;;;20.54;93.24
65754;BME280;69207;47.502;18.940;2023-06-22T00:17:11;98370.50;;;20.51;93.12
65754;BME280;69207;47.502;18.940;2023-06-22T00:18:15;98366.22;;;20.48;93.30
65754;BME280;69207;47.502;18.940;2023-06-22T00:19:18;98363.78;;;20.38;93.47
65754;BME280;69207;47.502;18.940;2023-06-22T00:20:23;98367.72;;;20.31;94.25
65754;BME280;69207;47.502;18.940;2023-06-22T00:21:30;98368.34;;;20.29;94.45
65754;BME280;69207;47.502;18.940;2023-06-22T00:22:33;98364.06;;;20.26;95.06
65754;BME280;69207;47.502;18.940;2023-06-22T00:23:41;98365.50;;;20.27;95.35
65754;BME280;69207;47.502;18.940;2023-06-22T00:24:44;98370.78;;;20.19;96.38
65754;BME280;69207;47.502;18.940;2023-06-22T00:25:47;98372.16;;;20.18;96.39
65754;BME280;69207;47.502;18.940;2023-06-22T00:26:50;98367.78;;;20.13;97.10
65754;BME280;69207;47.502;18.940;2023-06-22T00:27:53;98371.94;;;20.12;97.12
65754;BME280;69207;47.502;18.940;2023-06-22T00:28:56;98366.22;;;20.08;97.31
65754;BME280;69207;47.502;18.940;2023-06-22T00:29:59;98372.38;;;20.04;97.91
65754;BME280;69207;47.502;18.940;2023-06-22T00:31:02;98377.09;;;20.00;98.44
65754;BME280;69207;47.502;18.940;2023-06-22T00:32:07;98381.09;;;19.95;98.82
65754;BME280;69207;47.502;18.940;2023-06-22T00:33:10;98382.22;;;19.88;99.24
65754;BME280;69207;47.502;18.940;2023-06-22T00:34:13;98374.44;;;19.84;99.84
65754;BME280;69207;47.502;18.940;2023-06-22T00:35:16;98373.62;;;19.82;99.82
65754;BME280;69207;47.502;18.940;2023-06-22T00:36:19;98374.22;;;19.78;99.78
65754;BME280;69207;47.502;18.940;2023-06-22T00:37:22;98370.63;;;19.75;100.00
65754;BME280;69207;47.502;18.940;2023-06-22T00:38:28;98376.50;;;19.84;100.00
65754;BME280;69207;47.502;18.940;2023-06-22T00:39:31;98377.00;;;19.78;99.94
65754;BME280;69207;47.502;18.940;2023-06-22T00:40:36;98377.41;;;19.70;100.00
65754;BME280;69207;47.502;18.940;2023-06-22T00:41:39;98377.56;;;19.74;100.00
65754;BME280;69207;47.502;18.940;2023-06-22T00:42:42;98377.50;;;19.72;100.00
65754;BME280;69207;47.502;18.940;2023-06-22T00:43:45;98366.34;;;19.72;100.00
65754;BME280;69207;47.502;18.940;2023-06-22T00:44:48;98362.63;;;19.66;100.00
65754;BME280;69207;47.502;18.940;2023-06-22T00:45:51;98371.28;;;19.56;100.00
65754;BME280;69207;47.502;18.940;2023-06-22T00:46:54;98377.41;;;19.52;100.00
65754;BME280;69207;47.502;18.940;2023-06-22T00:47:57;98375.19;;;19.49;100.00
65754;BME280;69207;47.502;18.940;2023-06-22T00:49:01;98372.41;;;19.49;100.00
65754;BME280;69207;47.502;18.940;2023-06-22T00:50:06;98376.13;;;19.56;100.00
65754;BME280;69207;47.502;18.940;2023-06-22T00:51:12;98368.25;;;19.50;100.00
65754;BME280;69207;47.502;18.940;2023-06-22T00:52:15;98365.25;;;19.44;100.00
65754;BME280;69207;47.502;18.940;2023-06-22T00:53:24;98365.81;;;19.40;100.00
65754;BME280;69207;47.502;18.940;2023-06-22T00:54:27;98369.84;;;19.37;100.00
65754;BME280;69207;47.502;18.940;2023-06-22T00:55:31;98371.78;;;19.33;100.00
65754;BME280;69207;47.502;18.940;2023-06-22T00:56:34;98367.66;;;19.34;100.00
65754;BME280;69207;47.502;18.940;2023-06-22T00:57:40;98373.22;;;19.34;100.00
65754;BME280;69207;47.502;18.940;2023-06-22T00:58:43;98372.50;;;19.33;100.00
65754;BME280;69207;47.502;18.940;2023-06-22T00:59:48;98367.47;;;19.30;100.00
65754;BME280;69207;47.502;18.940;2023-06-22T01:00:51;98374.41;;;19.29;100.00
65754;BME280;69207;47.502;18.940;2023-06-22T01:01:54;98367.31;;;19.25;100.00
65754;BME280;69207;47.502;18.940;2023-06-22T01:02:57;98365.91;;;19.24;100.00
65754;BME280;69207;47.502;18.940;2023-06-22T01:04:01;98370.09;;;19.25;100.00
65754;BME280;69207;47.502;18.940;2023-06-22T01:05:04;98365.19;;;19.24;100.00
65754;BME280;69207;47.502;18.940;2023-06-22T01:06:26;98358.81;;;19.21;100.00
65754;BME280;69207;47.502;18.940;2023-06-22T01:07:37;98363.03;;;19.22;100.00
65754;BME280;69207;47.502;18.940;2023-06-22T01:08:49;98361.63;;;19.21;100.00
65754;BME280;69207;47.502;18.940;2023-06-22T01:11:08;98359.31;;;19.16;100.00
65754;BME280;69207;47.502;18.940;2023-06-22T01:12:15;98354.28;;;19.12;100.00
65754;BME280;69207;47.502;18.940;2023-06-22T01:13:33;98355.66;;;19.11;100.00
65754;BME280;69207;47.502;18.940;2023-06-22T01:14:42;98354.22;;;19.10;100.00
65754;BME280;69207;47.502;18.940;2023-06-22T01:15:53;98347.28;;;19.11;100.00
65754;BME280;69207;47.502;18.940;2023-06-22T01:16:59;98350.69;;;19.10;100.00
65754;BME280;69207;47.502;18.940;2023-06-22T01:18:04;98355.66;;;19.11;100.00
65754;BME280;69207;47.502;18.940;2023-06-22T01:19:44;98353.56;;;19.12;100.00
65754;BME280;69207;47.502;18.940;2023-06-22T01:20:50;98352.28;;;19.15;100.00
65754;BME280;69207;47.502;18.940;2023-06-22T01:21:55;98352.94;;;19.13;100.00
65754;BME280;69207;47.502;18.940;2023-06-22T01:23:07;98350.78;;;19.12;100.00
65754;BME280;69207;47.502;18.940;2023-06-22T01:24:32;98348.00;;;19.12;100.00
65754;BME280;69207;47.502;18.940;2023-06-22T01:28:49;98349.25;;;19.09;100.00
65754;BME280;69207;47.502;18.940;2023-06-22T01:29:56;98346.56;;;19.11;100.00
65754;BME280;69207;47.502;18.940;2023-06-22T01:31:10;98352.16;;;19.11;100.00
65754;BME280;69207;47.502;18.940;2023-06-22T01:32:15;98351.28;;;19.06;100.00
65754;BME280;69207;47.502;18.940;2023-06-22T01:33:19;98351.97;;;19.07;100.00
65754;BME280;69207;47.502;18.940;2023-06-22T01:34:23;98346.97;;;19.03;100.00
65754;BME280;69207;47.502;18.940;2023-06-22T01:35:26;98344.75;;;18.99;100.00
65754;BME280;69207;47.502;18.940;2023-06-22T01:36:31;98348.78;;;18.96;100.00
65754;BME280;69207;47.502;18.940;2023-06-22T01:37:36;98353.00;;;18.97;100.00
65754;BME280;69207;47.502;18.940;2023-06-22T01:38:40;98346.66;;;18.95;100.00
65754;BME280;69207;47.502;18.940;2023-06-22T01:39:45;98356.97;;;18.92;100.00
65754;BME280;69207;47.502;18.940;2023-06-22T01:40:48;98351.41;;;18.92;100.00
65754;BME280;69207;47.502;18.940;2023-06-22T01:41:53;98358.25;;;18.89;100.00
65754;BME280;69207;47.502;18.940;2023-06-22T01:42:56;98349.25;;;18.91;100.00
65754;BME280;69207;47.502;18.940;2023-06-22T01:44:00;98337.34;;;18.88;100.00
65754;BME280;69207;47.502;18.940;2023-06-22T01:45:05;98340.75;;;18.87;100.00
65754;BME280;69207;47.502;18.940;2023-06-22T01:46:09;98335.88;;;18.87;100.00
65754;BME280;69207;47.502;18.940;2023-06-22T01:47:13;98346.47;;;18.91;100.00
65754;BME280;69207;47.502;18.940;2023-06-22T01:48:17;98352.94;;;18.95;100.00
65754;BME280;69207;47.502;18.940;2023-06-22T01:49:20;98349.25;;;18.91;100.00
65754;BME280;69207;47.502;18.940;2023-06-22T01:50:24;98347.78;;;18.88;100.00
65754;BME280;69207;47.502;18.940;2023-06-22T01:51:27;98349.25;;;18.91;100.00
65754;BME280;69207;47.502;18.940;2023-06-22T01:52:31;98354.59;;;18.85;100.00
65754;BME280;69207;47.502;18.940;2023-06-22T01:53:36;98350.94;;;18.80;100.00
65754;BME280;69207;47.502;18.940;2023-06-22T01:54:39;98355.72;;;18.78;100.00
65754;BME280;69207;47.502;18.940;2023-06-22T01:55:42;98352.81;;;18.76;100.00
65754;BME280;69207;47.502;18.940;2023-06-22T01:56:45;98356.91;;;18.72;100.00
65754;BME280;69207;47.502;18.940;2023-06-22T01:57:49;98349.97;;;18.73;100.00
65754;BME280;69207;47.502;18.940;2023-06-22T02:00:13;98356.78;;;18.70;100.00
65754;BME280;69207;47.502;18.940;2023-06-22T02:00:50;98352.50;;;18.67;100.00
65754;BME280;69207;47.502;18.940;2023-06-22T02:02:06;98357.94;;;18.65;100.00
65754;BME280;69207;47.502;18.940;2023-06-22T02:03:14;98351.06;;;18.66;100.00
65754;BME280;69207;47.502;18.940;2023-06-22T02:04:21;98352.50;;;18.67;100.00
65754;BME280;69207;47.502;18.940;2023-06-22T02:05:33;98352.50;;;18.67;100.00
65754;BME280;69207;47.502;18.940;2023-06-22T02:06:39;98348.38;;;18.68;100.00
65754;BME280;69207;47.502;18.940;2023-06-22T02:07:49;98357.50;;;18.71;100.00
65754;BME280;69207;47.502;18.940;2023-06-22T02:08:59;98356.78;;;18.70;100.00
65754;BME280;69207;47.502;18.940;2023-06-22T02:10:04;98353.94;;;18.68;100.00
65754;BME280;69207;47.502;18.940;2023-06-22T02:11:10;98351.78;;;18.67;100.00
65754;BME280;69207;47.502;18.940;2023-06-22T02:12:18;98353.84;;;18.66;100.00
65754;BME280;69207;47.502;18.940;2023-06-22T02:13:24;98355.91;;;18.66;100.00
65754;BME280;69207;47.502;18.940;2023-06-22T02:14:28;98355.16;;;18.65;100.00
65754;BME280;69207;47.502;18.940;2023-06-22T02:15:32;98355.09;;;18.63;100.00
65754;BME280;69207;47.502;18.940;2023-06-22T02:16:35;98354.44;;;18.65;100.00
65754;BME280;69207;47.502;18.940;2023-06-22T02:17:42;98355.81;;;18.64;100.00
65754;BME280;69207;47.502;18.940;2023-06-22T02:18:49;98363.37;;;18.61;100.00
65754;BME280;69207;47.502;18.940;2023-06-22T02:19:55;98377.19;;;18.59;100.00
65754;BME280;69207;47.502;18.940;2023-06-22T02:20:58;98373.06;;;18.60;100.00
65754;BME280;69207;47.502;18.940;2023-06-22T02:22:02;98377.28;;;18.61;100.00
65754;BME280;69207;47.502;18.940;2023-06-22T02:23:06;98375.75;;;18.58;100.00
65754;BME280;69207;47.502;18.940;2023-06-22T02:24:09;98376.38;;;18.57;100.00
65754;BME280;69207;47.502;18.940;2023-06-22T02:25:12;98380.59;;;18.58;100.00
65754;BME280;69207;47.502;18.940;2023-06-22T02:26:17;98382.12;;;18.61;100.00
65754;BME280;69207;47.502;18.940;2023-06-22T02:27:20;98383.72;;;18.66;100.00
65754;BME280;69207;47.502;18.940;2023-06-22T02:28:23;98381.50;;;18.62;100.00
65754;BME280;69207;47.502;18.940;2023-06-22T02:29:26;98383.44;;;18.60;100.00
65754;BME280;69207;47.502;18.940;2023-06-22T02:30:31;98382.75;;;18.59;100.00
65754;BME280;69207;47.502;18.940;2023-06-22T02:31:34;98383.56;;;18.62;100.00
65754;BME280;69207;47.502;18.940;2023-06-22T02:32:37;98387.13;;;18.64;100.00
65754;BME280;69207;47.502;18.940;2023-06-22T02:33:40;98381.06;;;18.68;100.00
65754;BME280;69207;47.502;18.940;2023-06-22T02:34:43;98385.78;;;18.65;100.00
65754;BME280;69207;47.502;18.940;2023-06-22T02:35:50;98387.13;;;18.64;100.00
65754;BME280;69207;47.502;18.940;2023-06-22T02:36:53;98380.94;;;18.66;100.00
65754;BME280;69207;47.502;18.940;2023-06-22T02:37:58;98379.69;;;18.69;100.00
65754;BME280;69207;47.502;18.940;2023-06-22T02:39:02;98381.94;;;18.72;100.00
65754;BME280;69207;47.502;18.940;2023-06-22T02:40:07;98383.38;;;18.73;100.00
65754;BME280;69207;47.502;18.940;2023-06-22T02:41:11;98379.22;;;18.75;100.00
65754;BME280;69207;47.502;18.940;2023-06-22T02:42:15;98379.94;;;18.75;100.00
65754;BME280;69207;47.502;18.940;2023-06-22T02:43:23;98378.50;;;18.74;100.00
65754;BME280;69207;47.502;18.940;2023-06-22T02:44:26;98384.09;;;18.74;100.00
65754;BME280;69207;47.502;18.940;2023-06-22T02:45:29;98382.66;;;18.73;100.00
65754;BME280;69207;47.502;18.940;2023-06-22T02:46:32;98388.13;;;18.71;100.00
65754;BME280;69207;47.502;18.940;2023-06-22T02:47:35;98384.53;;;18.68;100.00
65754;BME280;69207;47.502;18.940;2023-06-22T02:48:39;98390.13;;;18.68;100.00
65754;BME280;69207;47.502;18.940;2023-06-22T02:49:42;98390.13;;;18.68;100.00
65754;BME280;69207;47.502;18.940;2023-06-22T02:50:47;98391.47;;;18.67;100.00
65754;BME280;69207;47.502;18.940;2023-06-22T02:51:50;98394.41;;;18.71;100.00
65754;BME280;69207;47.502;18.940;2023-06-22T02:52:53;98392.44;;;18.74;100.00
65754;BME280;69207;47.502;18.940;2023-06-22T02:53:56;98388.84;;;18.71;100.00
65754;BME280;69207;47.502;18.940;2023-06-22T02:55:00;98395.75;;;18.70;100.00
65754;BME280;69207;47.502;18.940;2023-06-22T02:56:03;98388.75;;;18.69;100.00
65754;BME280;69207;47.502;18.940;2023-06-22T02:57:08;98390.13;;;18.68;100.00
65754;BME280;69207;47.502;18.940;2023-06-22T02:58:16;98393.59;;;18.69;100.00
65754;BME280;69207;47.502;18.940;2023-06-22T02:59:19;98385.91;;;18.67;100.00
65754;BME280;69207;47.502;18.940;2023-06-22T03:00:26;98387.41;;;18.70;100.00
65754;BME280;69207;47.502;18.940;2023-06-22T03:01:33;98383.38;;;18.73;100.00
65754;BME280;69207;47.502;18.940;2023-06-22T03:02:47;98386.78;;;18.72;100.00
65754;BME280;69207;47.502;18.940;2023-06-22T03:03:51;98380.50;;;18.71;100.00
65754;BME280;69207;47.502;18.940;2023-06-22T03:04:54;98380.50;;;18.71;100.00
65754;BME280;69207;47.502;18.940;2023-06-22T03:05:57;98380.41;;;18.69;100.00
65754;BME280;69207;47.502;18.940;2023-06-22T03:07:00;98378.34;;;18.70;100.00
65754;BME280;69207;47.502;18.940;2023-06-22T03:08:04;98374.12;;;18.69;100.00
65754;BME280;69207;47.502;18.940;2023-06-22T03:09:07;98374.12;;;18.69;100.00
65754;BME280;69207;47.502;18.940;2023-06-22T03:10:11;98381.84;;;18.70;100.00
65754;BME280;69207;47.502;18.940;2023-06-22T03:11:14;98375.56;;;18.70;100.00
65754;BME280;69207;47.502;18.940;2023-06-22T03:12:17;98377.63;;;18.69;100.00
65754;BME280;69207;47.502;18.940;2023-06-22T03:13:20;98376.91;;;18.69;100.00
65754;BME280;69207;47.502;18.940;2023-06-22T03:14:23;98375.66;;;18.72;100.00
65754;BME280;69207;47.502;18.940;2023-06-22T03:15:26;98378.50;;;18.74;100.00
65754;BME280;69207;47.502;18.940;2023-06-22T03:16:32;98381.94;;;18.72;100.00
65754;BME280;69207;47.502;18.940;2023-06-22T03:17:36;98381.94;;;18.72;100.00
65754;BME280;69207;47.502;18.940;2023-06-22T03:18:41;98384.72;;;18.72;100.00
65754;BME280;69207;47.502;18.940;2023-06-22T03:19:44;98391.00;;;18.73;100.00
65754;BME280;69207;47.502;18.940;2023-06-22T03:20:47;98378.44;;;18.72;100.00
65754;BME280;69207;47.502;18.940;2023-06-22T03:21:49;98377.72;;;18.71;100.00
65754;BME280;69207;47.502;18.940;2023-06-22T03:22:52;98381.22;;;18.72;100.00
65754;BME280;69207;47.502;18.940;2023-06-22T03:23:55;98379.78;;;18.71;100.00
65754;BME280;69207;47.502;18.940;2023-06-22T03:24:58;98373.66;;;18.75;100.00
65754;BME280;69207;47.502;18.940;2023-06-22T03:26:02;98381.53;;;18.80;100.00
65754;BME280;69207;47.502;18.940;2023-06-22T03:27:06;98375.19;;;18.78;100.00
65754;BME280;69207;47.502;18.940;2023-06-22T03:28:09;98374.38;;;18.75;100.00
65754;BME280;69207;47.502;18.940;2023-06-22T03:29:12;98377.81;;;18.73;100.00
65754;BME280;69207;47.502;18.940;2023-06-22T03:30:15;98372.88;;;18.72;100.00
65754;BME280;69207;47.502;18.940;2023-06-22T03:31:18;98378.44;;;18.72;100.00
65754;BME280;69207;47.502;18.940;2023-06-22T03:32:24;98381.22;;;18.72;100.00
65754;BME280;69207;47.502;18.940;2023-06-22T03:33:28;98376.38;;;18.72;100.00
65754;BME280;69207;47.502;18.940;2023-06-22T03:34:31;98380.59;;;18.73;100.00
65754;BME280;69207;47.502;18.940;2023-06-22T03:35:36;98375.09;;;18.76;100.00
65754;BME280;69207;47.502;18.940;2023-06-22T03:36:39;98381.38;;;18.76;100.00
65754;BME280;69207;47.502;18.940;2023-06-22T03:37:42;98375.91;;;18.78;100.00
65754;BME280;69207;47.502;18.940;2023-06-22T03:38:45;98379.41;;;18.79;100.00
65754;BME280;69207;47.502;18.940;2023-06-22T03:39:48;98375.25;;;18.80;100.00
65754;BME280;69207;47.502;18.940;2023-06-22T03:40:51;98374.53;;;18.79;100.00
65754;BME280;69207;47.502;18.940;2023-06-22T03:41:54;98371.94;;;18.83;100.00
65754;BME280;69207;47.502;18.940;2023-06-22T03:42:57;98372.09;;;18.87;100.00
65754;BME280;69207;47.502;18.940;2023-06-22T03:44:00;98372.81;;;18.88;100.00
65754;BME280;69207;47.502;18.940;2023-06-22T03:45:04;98368.59;;;18.87;100.00
65754;BME280;69207;47.502;18.940;2023-06-22T03:46:07;98374.16;;;18.87;100.00
65754;BME280;69207;47.502;18.940;2023-06-22T03:47:10;98364.72;;;18.94;100.00
65754;BME280;69207;47.502;18.940;2023-06-22T03:48:13;98370.41;;;18.98;100.00
65754;BME280;69207;47.502;18.940;2023-06-22T03:49:16;98366.38;;;19.01;100.00
65754;BME280;69207;47.502;18.940;2023-06-22T03:50:19;98371.13;;;18.98;100.00
65754;BME280;69207;47.502;18.940;2023-06-22T03:51:23;98373.84;;;18.96;100.00
65754;BME280;69207;47.502;18.940;2023-06-22T03:52:25;98365.50;;;18.96;100.00
65754;BME280;69207;47.502;18.940;2023-06-22T03:53:29;98369.00;;;18.97;100.00
65754;BME280;69207;47.502;18.940;2023-06-22T03:54:32;98366.91;;;18.97;100.00
65754;BME280;69207;47.502;18.940;2023-06-22T03:55:35;98375.28;;;18.97;100.00
65754;BME280;69207;47.502;18.940;2023-06-22T03:56:39;98377.44;;;18.99;100.00
65754;BME280;69207;47.502;18.940;2023-06-22T03:57:41;98367.72;;;19.00;100.00
65754;BME280;69207;47.502;18.940;2023-06-22T03:58:44;98370.59;;;19.02;100.00
65754;BME280;69207;47.502;18.940;2023-06-22T03:59:47;98366.44;;;19.03;100.00
65754;BME280;69207;47.502;18.940;2023-06-22T04:00:52;98370.75;;;19.06;100.00
65754;BME280;69207;47.502;18.940;2023-06-22T04:01:55;98373.62;;;19.08;100.00
65754;BME280;69207;47.502;18.940;2023-06-22T04:02:58;98375.03;;;19.09;100.00
65754;BME280;69207;47.502;18.940;2023-06-22T04:04:02;98382.78;;;19.11;100.00
65754;BME280;69207;47.502;18.940;2023-06-22T04:05:05;98384.91;;;19.12;100.00
65754;BME280;69207;47.502;18.940;2023-06-22T04:06:09;98378.69;;;19.14;100.00
65754;BME280;69207;47.502;18.940;2023-06-22T04:07:12;98381.59;;;19.16;100.00
65754;BME280;69207;47.502;18.940;2023-06-22T04:08:15;98386.50;;;19.17;100.00
65754;BME280;69207;47.502;18.940;2023-06-22T04:09:18;98386.59;;;19.19;100.00
65754;BME280;69207;47.502;18.940;2023-06-22T04:10:21;98384.50;;;19.20;100.00
65754;BME280;69207;47.502;18.940;2023-06-22T04:11:24;98383.16;;;19.21;100.00
65754;BME280;69207;47.502;18.940;2023-06-22T04:12:27;98381.19;;;19.23;100.00
65754;BME280;69207;47.502;18.940;2023-06-22T04:13:30;98389.59;;;19.25;100.00
65754;BME280;69207;47.502;18.940;2023-06-22T04:14:33;98382.06;;;19.28;100.00
65754;BME280;69207;47.502;18.940;2023-06-22T04:15:36;98385.63;;;19.31;100.00
65754;BME280;69207;47.502;18.940;2023-06-22T04:16:39;98379.44;;;19.32;100.00
65754;BME280;69207;47.502;18.940;2023-06-22T04:17:42;98383.66;;;19.33;100.00
65754;BME280;69207;47.502;18.940;2023-06-22T04:18:45;98390.09;;;19.38;100.00
65754;BME280;69207;47.502;18.940;2023-06-22T04:19:48;98385.31;;;19.40;100.00
65754;BME280;69207;47.502;18.940;2023-06-22T04:20:50;98388.88;;;19.43;100.00
65754;BME280;69207;47.502;18.940;2023-06-22T04:21:54;98393.81;;;19.44;100.00
65754;BME280;69207;47.502;18.940;2023-06-22T04:22:57;98389.69;;;19.45;100.00
65754;BME280;69207;47.502;18.940;2023-06-22T04:24:00;98393.97;;;19.48;100.00
65754;BME280;69207;47.502;18.940;2023-06-22T04:25:03;98384.97;;;19.50;100.00
65754;BME280;69207;47.502;18.940;2023-06-22T04:26:06;98388.56;;;19.52;100.00
65754;BME280;69207;47.502;18.940;2023-06-22T04:27:09;98386.56;;;19.55;100.00
65754;BME280;69207;47.502;18.940;2023-06-22T04:28:12;98388.06;;;19.58;100.00
65754;BME280;69207;47.502;18.940;2023-06-22T04:29:15;98384.66;;;19.60;100.00
65754;BME280;69207;47.502;18.940;2023-06-22T04:30:18;98388.25;;;19.62;100.00
65754;BME280;69207;47.502;18.940;2023-06-22T04:31:21;98390.41;;;19.64;100.00
65754;BME280;69207;47.502;18.940;2023-06-22T04:32:24;98396.78;;;19.66;100.00
65754;BME280;69207;47.502;18.940;2023-06-22T04:33:28;98389.91;;;19.69;100.00
65754;BME280;69207;47.502;18.940;2023-06-22T04:34:34;98384.44;;;19.71;100.00
65754;BME280;69207;47.502;18.940;2023-06-22T04:35:37;98385.25;;;19.76;100.00
65754;BME280;69207;47.502;18.940;2023-06-22T04:36:44;98391.66;;;19.78;100.00
65754;BME280;69207;47.502;18.940;2023-06-22T04:37:47;98388.28;;;19.82;100.00
65754;BME280;69207;47.502;18.940;2023-06-22T04:38:52;98384.94;;;19.86;100.00
65754;BME280;69207;47.502;18.940;2023-06-22T04:39:55;98391.44;;;19.92;100.00
65754;BME280;69207;47.502;18.940;2023-06-22T04:40:58;98397.09;;;19.94;100.00
65754;BME280;69207;47.502;18.940;2023-06-22T04:42:01;98403.47;;;19.97;100.00
65754;BME280;69207;47.502;18.940;2023-06-22T04:43:05;98398.75;;;20.01;100.00
65754;BME280;69207;47.502;18.940;2023-06-22T04:44:17;98406.63;;;20.07;100.00
65754;BME280;69207;47.502;18.940;2023-06-22T04:45:28;98403.97;;;20.11;100.00
65754;BME280;69207;47.502;18.940;2023-06-22T04:46:34;98403.50;;;20.17;100.00
65754;BME280;69207;47.502;18.940;2023-06-22T04:47:43;98409.19;;;20.21;100.00
65754;BME280;69207;47.502;18.940;2023-06-22T04:48:48;98407.19;;;20.23;100.00
65754;BME280;69207;47.502;18.940;2023-06-22T04:49:50;98406.66;;;20.27;100.00
65754;BME280;69207;47.502;18.940;2023-06-22T04:50:53;98413.00;;;20.29;100.00
65754;BME280;69207;47.502;18.940;2023-06-22T04:51:56;98403.97;;;20.31;100.00
65754;BME280;69207;47.502;18.940;2023-06-22T04:52:59;98403.41;;;20.35;100.00
65754;BME280;69207;47.502;18.940;2023-06-22T04:54:03;98409.84;;;20.39;100.00
65754;BME280;69207;47.502;18.940;2023-06-22T04:55:08;98410.63;;;20.42;100.00
65754;BME280;69207;47.502;18.940;2023-06-22T04:56:11;98406.56;;;20.45;100.00
65754;BME280;69207;47.502;18.940;2023-06-22T04:57:14;98409.44;;;20.47;100.00
65754;BME280;69207;47.502;18.940;2023-06-22T04:58:17;98411.66;;;20.50;100.00
65754;BME280;69207;47.502;18.940;2023-06-22T04:59:23;98414.59;;;20.54;100.00
65754;BME280;69207;47.502;18.940;2023-06-22T05:00:31;98415.37;;;20.57;100.00
65754;BME280;69207;47.502;18.940;2023-06-22T05:01:34;98412.72;;;20.61;100.00
65754;BME280;69207;47.502;18.940;2023-06-22T05:02:38;98418.44;;;20.65;100.00
65754;BME280;69207;47.502;18.940;2023-06-22T05:03:42;98413.63;;;20.68;100.00
65754;BME280;69207;47.502;18.940;2023-06-22T05:04:45;98415.87;;;20.71;100.00
65754;BME280;69207;47.502;18.940;2023-06-22T05:05:48;98415.97;;;20.75;100.00
65754;BME280;69207;47.502;18.940;2023-06-22T05:06:52;98424.44;;;20.77;100.00
65754;BME280;69207;47.502;18.940;2023-06-22T05:07:56;98420.34;;;20.80;100.00
65754;BME280;69207;47.502;18.940;2023-06-22T05:09:03;98425.34;;;20.84;100.00
65754;BME280;69207;47.502;18.940;2023-06-22T05:10:06;98422.00;;;20.88;100.00
65754;BME280;69207;47.502;18.940;2023-06-22T05:11:09;98433.28;;;20.92;100.00
65754;BME280;69207;47.502;18.940;2023-06-22T05:12:12;98428.50;;;20.94;100.00
65754;BME280;69207;47.502;18.940;2023-06-22T05:13:15;98430.63;;;20.96;100.00
65754;BME280;69207;47.502;18.940;2023-06-22T05:14:19;98426.56;;;20.99;100.00
65754;BME280;69207;47.502;18.940;2023-06-22T05:15:22;98429.41;;;21.01;100.00
65754;BME280;69207;47.502;18.940;2023-06-22T05:16:29;98419.72;;;21.04;100.00
65754;BME280;69207;47.502;18.940;2023-06-22T05:17:32;98437.31;;;21.08;100.00
65754;BME280;69207;47.502;18.940;2023-06-22T05:18:35;98428.31;;;21.10;100.00
65754;BME280;69207;47.502;18.940;2023-06-22T05:19:40;98430.50;;;21.14;100.00
65754;BME280;69207;47.502;18.940;2023-06-22T05:20:50;98434.81;;;21.17;100.00
65754;BME280;69207;47.502;18.940;2023-06-22T05:21:54;98436.38;;;21.22;100.00
65754;BME280;69207;47.502;18.940;2023-06-22T05:22:57;98440.06;;;21.28;100.00
65754;BME280;69207;47.502;18.940;2023-06-22T05:24:00;98441.56;;;21.31;100.00
65754;BME280;69207;47.502;18.940;2023-06-22T05:25:09;98445.87;;;21.34;100.00
65754;BME280;69207;47.502;18.940;2023-06-22T05:26:12;98443.12;;;21.37;100.00
65754;BME280;69207;47.502;18.940;2023-06-22T05:27:15;98436.97;;;21.40;100.00
65754;BME280;69207;47.502;18.940;2023-06-22T05:28:18;98443.44;;;21.47;100.00
65754;BME280;69207;47.502;18.940;2023-06-22T05:29:26;98445.53;;;21.46;100.00
65754;BME280;69207;47.502;18.940;2023-06-22T05:30:29;98453.25;;;21.48;100.00
65754;BME280;69207;47.502;18.940;2023-06-22T05:31:32;98452.53;;;21.47;100.00
65754;BME280;69207;47.502;18.940;2023-06-22T05:32:36;98450.47;;;21.48;100.00
65754;BME280;69207;47.502;18.940;2023-06-22T05:33:39;98447.66;;;21.48;100.00
65754;BME280;69207;47.502;18.940;2023-06-22T05:34:42;98447.63;;;21.46;100.00
65754;BME280;69207;47.502;18.940;2023-06-22T05:35:45;98450.47;;;21.48;100.00
65754;BME280;69207;47.502;18.940;2023-06-22T05:36:48;98460.31;;;21.49;100.00
65754;BME280;69207;47.502;18.940;2023-06-22T05:37:51;98463.16;;;21.51;100.00